sensor_id;sensor_type;location;lat;lon;timestamp;pressure;altitude;pressure_sealevel;temperature;humidity
47524;BME280;33253;42.144;25.884;2022-07-06T00:01:27;100240.66;;;22.03;65.41
47524;BME280;33253;42.144;25.884;2022-07-06T00:03:52;100225.91;;;21.94;65.65
47524;BME280;33253;42.144;25.884;2022-07-06T00:06:18;100221.53;;;21.92;65.41
47524;BME280;33253;42.144;25.884;2022-07-06T00:08:43;100207.81;;;21.68;65.87
47524;BME280;33253;42.144;25.884;2022-07-06T00:11:09;100245.25;;;21.86;66.12
47524;BME280;33253;42.144;25.884;2022-07-06T00:13:35;100231.31;;;21.82;65.96
47524;BME280;33253;42.144;25.884;2022-07-06T00:16:01;100244.09;;;22.08;65.50
47524;BME280;33253;42.144;25.884;2022-07-06T00:18:26;100246.78;;;22.04;65.60
47524;BME280;33253;42.144;25.884;2022-07-06T00:20:52;100258.25;;;21.98;65.65
47524;BME280;33253;42.144;25.884;2022-07-06T00:23:17;100233.94;;;21.82;66.23
47524;BME280;33253;42.144;25.884;2022-07-06T00:25:43;100221.78;;;21.72;66.69
47524;BME280;33253;42.144;25.884;2022-07-06T00:28:08;100225.06;;;21.89;65.46
47524;BME280;33253;42.144;25.884;2022-07-06T00:30:34;100231.75;;;22.13;65.23
47524;BME280;33253;42.144;25.884;2022-07-06T00:32:59;100227.38;;;22.12;64.66
47524;BME280;33253;42.144;25.884;2022-07-06T00:35:25;100244.09;;;22.08;65.17
47524;BME280;33253;42.144;25.884;2022-07-06T00:37:51;100222.34;;;21.95;64.94
47524;BME280;33253;42.144;25.884;2022-07-06T00:40:17;100239.72;;;22.07;65.54
47524;BME280;33253;42.144;25.884;2022-07-06T00:42:44;100242.28;;;22.10;65.36
47524;BME280;33253;42.144;25.884;2022-07-06T00:45:11;100152.00;;;21.49;64.71
47524;BME280;33253;42.144;25.884;2022-07-06T00:47:38;100208.47;;;21.87;65.11
47524;BME280;33253;42.144;25.884;2022-07-06T00:50:06;100236.31;;;21.99;64.66
47524;BME280;33253;42.144;25.884;2022-07-06T00:52:52;100243.22;;;22.08;64.82
47524;BME280;33253;42.144;25.884;2022-07-06T00:55:23;100242.94;;;22.26;63.22
47524;BME280;33253;42.144;25.884;2022-07-06T00:57:49;100239.25;;;22.41;61.60
47524;BME280;33253;42.144;25.884;2022-07-06T01:00:17;100239.91;;;22.56;61.25
47524;BME280;33253;42.144;25.884;2022-07-06T01:02:44;100243.31;;;22.61;61.15
47524;BME280;33253;42.144;25.884;2022-07-06T01:05:12;100228.47;;;22.58;61.18
47524;BME280;33253;42.144;25.884;2022-07-06T01:07:39;100205.84;;;22.48;61.33
47524;BME280;33253;42.144;25.884;2022-07-06T01:10:06;100230.19;;;22.59;61.85
47524;BME280;33253;42.144;25.884;2022-07-06T01:12:35;100192.84;;;22.37;61.98
47524;BME280;33253;42.144;25.884;2022-07-06T01:15:04;100224.94;;;22.58;62.43
47524;BME280;33253;42.144;25.884;2022-07-06T01:17:30;100206.03;;;22.33;62.50
47524;BME280;33253;42.144;25.884;2022-07-06T01:19:57;100209.72;;;22.22;62.96
47524;BME280;33253;42.144;25.884;2022-07-06T01:22:23;100226.84;;;21.89;64.97
47524;BME280;33253;42.144;25.884;2022-07-06T01:24:48;100220.25;;;21.54;66.45
47524;BME280;33253;42.144;25.884;2022-07-06T01:27:13;100226.47;;;21.46;66.74
47524;BME280;33253;42.144;25.884;2022-07-06T01:29:39;100157.03;;;20.94;67.57
47524;BME280;33253;42.144;25.884;2022-07-06T01:32:05;100218.72;;;21.34;67.46
47524;BME280;33253;42.144;25.884;2022-07-06T01:34:31;100197.09;;;21.12;68.06
47524;BME280;33253;42.144;25.884;2022-07-06T01:36:56;100163.09;;;21.01;67.82
47524;BME280;33253;42.144;25.884;2022-07-06T01:39:22;100201.22;;;21.36;67.07
47524;BME280;33253;42.144;25.884;2022-07-06T01:41:47;100087.97;;;20.94;65.92
47524;BME280;33253;42.144;25.884;2022-07-06T01:44:13;100213.00;;;21.76;66.48
47524;BME280;33253;42.144;25.884;2022-07-06T01:46:38;100207.81;;;21.68;66.86
47524;BME280;33253;42.144;25.884;2022-07-06T01:49:05;100211.72;;;21.36;69.39
47524;BME280;33253;42.144;25.884;2022-07-06T01:51:30;100187.81;;;20.78;70.78
47524;BME280;33253;42.144;25.884;2022-07-06T01:53:56;100215.66;;;20.95;70.13
47524;BME280;33253;42.144;25.884;2022-07-06T01:56:21;100206.38;;;20.52;71.18
47524;BME280;33253;42.144;25.884;2022-07-06T01:58:47;100125.41;;;20.16;71.17
47524;BME280;33253;42.144;25.884;2022-07-06T02:01:17;100208.25;;;20.38;71.98
47524;BME280;33253;42.144;25.884;2022-07-06T02:03:43;100201.19;;;20.47;71.86
47524;BME280;33253;42.144;25.884;2022-07-06T02:06:10;100210.06;;;20.25;72.49
47524;BME280;33253;42.144;25.884;2022-07-06T02:08:37;100200.63;;;20.02;73.47
47524;BME280;33253;42.144;25.884;2022-07-06T02:11:04;100191.84;;;20.06;73.41
47524;BME280;33253;42.144;25.884;2022-07-06T02:13:30;100130.88;;;19.76;73.02
47524;BME280;33253;42.144;25.884;2022-07-06T02:15:55;100192.59;;;20.24;72.59
47524;BME280;33253;42.144;25.884;2022-07-06T02:18:21;100184.00;;;20.08;73.58
47524;BME280;33253;42.144;25.884;2022-07-06T02:20:46;100196.91;;;20.34;72.34
47524;BME280;33253;42.144;25.884;2022-07-06T02:23:12;100140.25;;;20.16;72.63
47524;BME280;33253;42.144;25.884;2022-07-06T02:25:37;100173.97;;;20.62;71.31
47524;BME280;33253;42.144;25.884;2022-07-06T02:28:03;100172.16;;;20.66;71.03
47524;BME280;33253;42.144;25.884;2022-07-06T02:30:29;100152.13;;;20.57;69.92
47524;BME280;33253;42.144;25.884;2022-07-06T02:32:54;100186.78;;;20.95;69.52
47524;BME280;33253;42.144;25.884;2022-07-06T02:35:20;100166.63;;;20.97;68.64
47524;BME280;33253;42.144;25.884;2022-07-06T02:37:45;100172.59;;;21.11;68.25
47524;BME280;33253;42.144;25.884;2022-07-06T02:40:11;100169.31;;;20.94;68.59
47524;BME280;33253;42.144;25.884;2022-07-06T02:42:36;100158.06;;;20.79;69.11
47524;BME280;33253;42.144;25.884;2022-07-06T02:45:02;100169.47;;;20.77;69.44
47524;BME280;33253;42.144;25.884;2022-07-06T02:47:28;100128.44;;;20.68;69.31
47524;BME280;33253;42.144;25.884;2022-07-06T02:49:54;100144.81;;;20.92;68.89
47524;BME280;33253;42.144;25.884;2022-07-06T02:52:20;100165.63;;;21.10;68.30
47524;BME280;33253;42.144;25.884;2022-07-06T02:54:45;100164.72;;;21.13;67.87
47524;BME280;33253;42.144;25.884;2022-07-06T02:57:11;100137.66;;;21.05;66.91
47524;BME280;33253;42.144;25.884;2022-07-06T02:59:36;100148.19;;;21.06;67.52
47524;BME280;33253;42.144;25.884;2022-07-06T03:02:05;100182.00;;;21.29;68.21
47524;BME280;33253;42.144;25.884;2022-07-06T03:04:31;100173.13;;;21.41;67.50
47524;BME280;33253;42.144;25.884;2022-07-06T03:06:57;100168.88;;;21.31;69.38
47524;BME280;33253;42.144;25.884;2022-07-06T03:09:22;100163.91;;;21.05;71.50
47524;BME280;33253;42.144;25.884;2022-07-06T03:11:47;100150.41;;;20.56;73.11
47524;BME280;33253;42.144;25.884;2022-07-06T03:14:13;100153.94;;;20.52;74.14
47524;BME280;33253;42.144;25.884;2022-07-06T03:16:39;100168.66;;;20.67;74.10
47524;BME280;33253;42.144;25.884;2022-07-06T03:19:04;100157.47;;;20.48;74.39
47524;BME280;33253;42.144;25.884;2022-07-06T03:21:29;100168.91;;;20.39;75.79
47524;BME280;33253;42.144;25.884;2022-07-06T03:23:55;100158.44;;;20.34;75.42
47524;BME280;33253;42.144;25.884;2022-07-06T03:26:20;100166.19;;;20.50;74.91
47524;BME280;33253;42.144;25.884;2022-07-06T03:28:46;100147.84;;;20.50;73.40
47524;BME280;33253;42.144;25.884;2022-07-06T03:31:11;100139.91;;;20.55;72.11
47524;BME280;33253;42.144;25.884;2022-07-06T03:33:37;100132.94;;;20.55;70.33
47524;BME280;33253;42.144;25.884;2022-07-06T03:36:03;100158.19;;;20.65;69.37
47524;BME280;33253;42.144;25.884;2022-07-06T03:38:30;100145.13;;;20.59;68.87
47524;BME280;33253;42.144;25.884;2022-07-06T03:40:56;100080.88;;;20.13;69.65
47524;BME280;33253;42.144;25.884;2022-07-06T03:43:21;100140.97;;;20.33;70.45
47524;BME280;33253;42.144;25.884;2022-07-06T03:45:47;100135.00;;;20.19;70.52
47524;BME280;33253;42.144;25.884;2022-07-06T03:48:12;100156.75;;;20.29;70.96
47524;BME280;33253;42.144;25.884;2022-07-06T03:50:37;100117.78;;;19.85;71.84
47524;BME280;33253;42.144;25.884;2022-07-06T03:53:03;100044.69;;;19.45;71.74
47524;BME280;33253;42.144;25.884;2022-07-06T03:55:28;100156.75;;;20.29;70.07
47524;BME280;33253;42.144;25.884;2022-07-06T03:57:54;100159.53;;;20.10;70.98
47524;BME280;33253;42.144;25.884;2022-07-06T04:00:19;100141.19;;;20.10;71.22
47524;BME280;33253;42.144;25.884;2022-07-06T04:02:45;100161.09;;;20.30;71.49
47524;BME280;33253;42.144;25.884;2022-07-06T04:05:10;100146.34;;;20.18;71.22
47524;BME280;33253;42.144;25.884;2022-07-06T04:07:36;100169.84;;;20.32;71.88
47524;BME280;33253;42.144;25.884;2022-07-06T04:10:01;100168.03;;;20.39;70.69
47524;BME280;33253;42.144;25.884;2022-07-06T04:12:27;100134.03;;;20.28;70.07
47524;BME280;33253;42.144;25.884;2022-07-06T04:14:52;100159.97;;;20.62;69.35
47524;BME280;33253;42.144;25.884;2022-07-06T04:17:20;100163.31;;;20.82;70.34
47524;BME280;33253;42.144;25.884;2022-07-06T04:20:05;100154.53;;;20.82;69.97
47524;BME280;33253;42.144;25.884;2022-07-06T04:22:30;100164.09;;;20.89;71.71
47524;BME280;33253;42.144;25.884;2022-07-06T04:24:56;100142.31;;;20.79;69.75
47524;BME280;33253;42.144;25.884;2022-07-06T04:27:21;100124.94;;;20.67;71.46
47524;BME280;33253;42.144;25.884;2022-07-06T04:29:47;100146.78;;;20.68;71.72
47524;BME280;33253;42.144;25.884;2022-07-06T04:32:12;100169.66;;;20.52;73.41
47524;BME280;33253;42.144;25.884;2022-07-06T04:34:38;100147.09;;;20.32;73.94
47524;BME280;33253;42.144;25.884;2022-07-06T04:37:03;100165.41;;;20.37;73.39
47524;BME280;33253;42.144;25.884;2022-07-06T04:39:28;100177.59;;;20.44;74.43
47524;BME280;33253;42.144;25.884;2022-07-06T04:41:57;100178.41;;;20.52;74.32
47524;BME280;33253;42.144;25.884;2022-07-06T04:44:22;100178.41;;;20.51;73.98
47524;BME280;33253;42.144;25.884;2022-07-06T04:46:47;100172.44;;;20.36;74.23
47524;BME280;33253;42.144;25.884;2022-07-06T04:49:13;100187.13;;;20.56;73.61
47524;BME280;33253;42.144;25.884;2022-07-06T04:51:39;100162.66;;;20.51;73.35
47524;BME280;33253;42.144;25.884;2022-07-06T04:54:04;100163.56;;;20.51;72.72
47524;BME280;33253;42.144;25.884;2022-07-06T04:56:30;100079.13;;;20.11;73.26
47524;BME280;33253;42.144;25.884;2022-07-06T04:58:56;100181.03;;;20.49;74.18
47524;BME280;33253;42.144;25.884;2022-07-06T05:01:21;100140.16;;;20.27;75.67
47524;BME280;33253;42.144;25.884;2022-07-06T05:03:47;100175.69;;;20.65;75.26
47524;BME280;33253;42.144;25.884;2022-07-06T05:06:12;100186.00;;;20.87;74.88
47524;BME280;33253;42.144;25.884;2022-07-06T05:08:38;100184.38;;;20.68;76.96
47524;BME280;33253;42.144;25.884;2022-07-06T05:11:03;100187.00;;;20.73;77.65
47524;BME280;33253;42.144;25.884;2022-07-06T05:13:29;100184.22;;;20.90;78.73
47524;BME280;33253;42.144;25.884;2022-07-06T05:15:54;100197.91;;;21.19;77.91
47524;BME280;33253;42.144;25.884;2022-07-06T05:18:20;100171.69;;;21.14;73.20
47524;BME280;33253;42.144;25.884;2022-07-06T05:20:45;100195.22;;;21.23;73.86
47524;BME280;33253;42.144;25.884;2022-07-06T05:23:11;100203.81;;;21.34;72.09
47524;BME280;33253;42.144;25.884;2022-07-06T05:25:36;100196.94;;;21.27;70.20
47524;BME280;33253;42.144;25.884;2022-07-06T05:28:02;100204.78;;;21.29;71.53
47524;BME280;33253;42.144;25.884;2022-07-06T05:30:28;100213.34;;;21.46;71.89
47524;BME280;33253;42.144;25.884;2022-07-06T05:32:53;100212.41;;;21.50;69.45
47524;BME280;33253;42.144;25.884;2022-07-06T05:35:19;100213.13;;;21.65;72.44
47524;BME280;33253;42.144;25.884;2022-07-06T05:37:44;100193.06;;;21.61;70.26
47524;BME280;33253;42.144;25.884;2022-07-06T05:40:10;100214.63;;;21.85;69.71
47524;BME280;33253;42.144;25.884;2022-07-06T05:42:36;100156.19;;;21.65;69.31
47524;BME280;33253;42.144;25.884;2022-07-06T05:45:01;100209.06;;;22.06;71.16
47524;BME280;33253;42.144;25.884;2022-07-06T05:47:29;100169.88;;;21.89;70.40
47524;BME280;33253;42.144;25.884;2022-07-06T05:50:13;100204.50;;;22.18;69.01
47524;BME280;33253;42.144;25.884;2022-07-06T05:52:44;100216.59;;;22.31;68.27
47524;BME280;33253;42.144;25.884;2022-07-06T05:55:11;100217.22;;;22.49;69.35
47524;BME280;33253;42.144;25.884;2022-07-06T05:57:38;100218.78;;;22.60;69.48
47524;BME280;33253;42.144;25.884;2022-07-06T06:00:04;100217.75;;;22.69;68.40
47524;BME280;33253;42.144;25.884;2022-07-06T06:02:40;100214.84;;;22.85;68.94
47524;BME280;33253;42.144;25.884;2022-07-06T06:05:10;100201.50;;;22.96;68.42
47524;BME280;33253;42.144;25.884;2022-07-06T06:07:37;100211.84;;;23.05;68.34
47524;BME280;33253;42.144;25.884;2022-07-06T06:10:05;100195.19;;;23.03;70.92
47524;BME280;33253;42.144;25.884;2022-07-06T06:12:31;100195.06;;;23.10;66.28
47524;BME280;33253;42.144;25.884;2022-07-06T06:14:56;100168.97;;;22.98;66.18
47524;BME280;33253;42.144;25.884;2022-07-06T06:17:22;100213.97;;;23.34;67.60
47524;BME280;33253;42.144;25.884;2022-07-06T06:19:47;100181.25;;;23.45;64.72
47524;BME280;33253;42.144;25.884;2022-07-06T06:22:13;100185.13;;;23.69;65.05
47524;BME280;33253;42.144;25.884;2022-07-06T06:24:39;100198.53;;;24.00;62.43
47524;BME280;33253;42.144;25.884;2022-07-06T06:27:05;100193.53;;;24.26;62.48
47524;BME280;33253;42.144;25.884;2022-07-06T06:29:30;100190.50;;;24.41;62.27
47524;BME280;33253;42.144;25.884;2022-07-06T06:31:56;100194.69;;;24.50;61.38
47524;BME280;33253;42.144;25.884;2022-07-06T06:34:21;100191.97;;;24.53;58.56
47524;BME280;33253;42.144;25.884;2022-07-06T06:36:47;100185.31;;;24.74;56.26
47524;BME280;33253;42.144;25.884;2022-07-06T06:39:12;100180.88;;;24.75;55.52
47524;BME280;33253;42.144;25.884;2022-07-06T06:41:37;100178.75;;;24.89;58.86
47524;BME280;33253;42.144;25.884;2022-07-06T06:44:04;100185.28;;;25.09;60.41
47524;BME280;33253;42.144;25.884;2022-07-06T06:46:29;100192.75;;;25.24;60.80
47524;BME280;33253;42.144;25.884;2022-07-06T06:48:55;100194.19;;;25.36;57.78
47524;BME280;33253;42.144;25.884;2022-07-06T06:51:20;100183.47;;;25.42;56.78
47524;BME280;33253;42.144;25.884;2022-07-06T06:53:46;100191.78;;;25.58;56.80
47524;BME280;33253;42.144;25.884;2022-07-06T06:56:12;100190.63;;;25.68;54.94
47524;BME280;33253;42.144;25.884;2022-07-06T06:58:38;100178.22;;;25.71;54.72
47524;BME280;33253;42.144;25.884;2022-07-06T07:01:04;100131.97;;;25.56;55.74
47524;BME280;33253;42.144;25.884;2022-07-06T07:03:30;100185.13;;;26.03;54.62
47524;BME280;33253;42.144;25.884;2022-07-06T07:05:56;100181.59;;;26.06;55.74
47524;BME280;33253;42.144;25.884;2022-07-06T07:08:21;100188.50;;;26.10;58.07
47524;BME280;33253;42.144;25.884;2022-07-06T07:10:47;100178.63;;;26.15;56.75
47524;BME280;33253;42.144;25.884;2022-07-06T07:13:12;100169.66;;;26.21;58.63
47524;BME280;33253;42.144;25.884;2022-07-06T07:15:38;100169.19;;;26.35;57.63
47524;BME280;33253;42.144;25.884;2022-07-06T07:18:03;100146.03;;;26.14;56.69
47524;BME280;33253;42.144;25.884;2022-07-06T07:20:29;100176.56;;;26.25;58.01
47524;BME280;33253;42.144;25.884;2022-07-06T07:22:56;100162.56;;;26.21;59.59
47524;BME280;33253;42.144;25.884;2022-07-06T07:25:21;100166.63;;;26.31;59.52
47524;BME280;33253;42.144;25.884;2022-07-06T07:27:47;100183.19;;;26.38;57.07
47524;BME280;33253;42.144;25.884;2022-07-06T07:30:12;100134.69;;;26.11;57.67
47524;BME280;33253;42.144;25.884;2022-07-06T07:32:38;100131.31;;;26.06;57.30
47524;BME280;33253;42.144;25.884;2022-07-06T07:35:06;100185.81;;;26.38;58.20
47524;BME280;33253;42.144;25.884;2022-07-06T07:37:31;100168.28;;;26.34;59.11
47524;BME280;33253;42.144;25.884;2022-07-06T07:39:57;100186.34;;;26.48;58.38
47524;BME280;33253;42.144;25.884;2022-07-06T07:42:23;100173.72;;;26.56;57.49
47524;BME280;33253;42.144;25.884;2022-07-06T07:44:48;100118.56;;;26.44;58.00
47524;BME280;33253;42.144;25.884;2022-07-06T07:47:13;100128.72;;;26.56;58.10
47524;BME280;33253;42.144;25.884;2022-07-06T07:49:39;100061.16;;;26.21;56.68
47524;BME280;33253;42.144;25.884;2022-07-06T07:52:05;100161.47;;;26.80;56.07
47524;BME280;33253;42.144;25.884;2022-07-06T07:54:31;100172.13;;;27.03;54.69
47524;BME280;33253;42.144;25.884;2022-07-06T07:56:57;100140.91;;;26.87;55.47
47524;BME280;33253;42.144;25.884;2022-07-06T07:59:22;100092.38;;;26.61;52.72
47524;BME280;33253;42.144;25.884;2022-07-06T08:01:48;100150.91;;;27.04;53.99
47524;BME280;33253;42.144;25.884;2022-07-06T08:04:13;100162.00;;;27.14;54.25
47524;BME280;33253;42.144;25.884;2022-07-06T08:06:39;100130.19;;;27.16;55.43
47524;BME280;33253;42.144;25.884;2022-07-06T08:09:04;100117.44;;;27.25;57.82
47524;BME280;33253;42.144;25.884;2022-07-06T08:11:33;100111.69;;;27.38;55.25
47524;BME280;33253;42.144;25.884;2022-07-06T08:13:58;100145.94;;;27.66;56.16
47524;BME280;33253;42.144;25.884;2022-07-06T08:16:24;100094.06;;;27.13;54.82
47524;BME280;33253;42.144;25.884;2022-07-06T08:18:50;100148.31;;;27.50;57.23
47524;BME280;33253;42.144;25.884;2022-07-06T08:21:15;100139.66;;;27.69;56.47
47524;BME280;33253;42.144;25.884;2022-07-06T08:23:41;100149.91;;;27.78;55.47
47524;BME280;33253;42.144;25.884;2022-07-06T08:26:06;100084.66;;;27.52;54.19
47524;BME280;33253;42.144;25.884;2022-07-06T08:28:32;100115.34;;;27.80;52.71
47524;BME280;33253;42.144;25.884;2022-07-06T08:30:57;100131.44;;;27.97;53.21
47524;BME280;33253;42.144;25.884;2022-07-06T08:33:23;100118.25;;;27.96;52.44
47524;BME280;33253;42.144;25.884;2022-07-06T08:35:49;100131.28;;;28.24;52.52
47524;BME280;33253;42.144;25.884;2022-07-06T08:38:14;100111.47;;;28.31;51.19
47524;BME280;33253;42.144;25.884;2022-07-06T08:40:40;100122.56;;;28.41;52.82
47524;BME280;33253;42.144;25.884;2022-07-06T08:43:08;100128.38;;;28.30;50.30
47524;BME280;33253;42.144;25.884;2022-07-06T08:45:34;100087.78;;;28.06;50.66
47524;BME280;33253;42.144;25.884;2022-07-06T08:48:07;100127.31;;;28.55;53.89
47524;BME280;33253;42.144;25.884;2022-07-06T08:50:53;100123.13;;;28.49;51.28
47524;BME280;33253;42.144;25.884;2022-07-06T08:53:20;100120.31;;;28.32;51.58
47524;BME280;33253;42.144;25.884;2022-07-06T08:55:49;100114.09;;;28.33;51.32
47524;BME280;33253;42.144;25.884;2022-07-06T08:58:15;100130.13;;;28.30;52.70
47524;BME280;33253;42.144;25.884;2022-07-06T09:00:40;100119.41;;;28.33;51.01
47524;BME280;33253;42.144;25.884;2022-07-06T09:03:07;100095.44;;;28.34;46.52
47524;BME280;33253;42.144;25.884;2022-07-06T09:05:34;100118.38;;;28.56;46.58
47524;BME280;33253;42.144;25.884;2022-07-06T09:08:02;100113.09;;;28.77;46.64
47524;BME280;33253;42.144;25.884;2022-07-06T09:10:27;100102.78;;;28.89;43.80
47524;BME280;33253;42.144;25.884;2022-07-06T09:12:53;100103.78;;;28.87;43.48
47524;BME280;33253;42.144;25.884;2022-07-06T09:15:27;100106.31;;;28.90;48.16
47524;BME280;33253;42.144;25.884;2022-07-06T09:17:55;100120.19;;;28.97;46.35
47524;BME280;33253;42.144;25.884;2022-07-06T09:20:21;100115.66;;;29.18;46.93
47524;BME280;33253;42.144;25.884;2022-07-06T09:22:47;100047.34;;;29.01;48.32
47524;BME280;33253;42.144;25.884;2022-07-06T09:25:14;100090.59;;;29.62;43.94
47524;BME280;33253;42.144;25.884;2022-07-06T09:27:42;100084.84;;;29.89;45.06
47524;BME280;33253;42.144;25.884;2022-07-06T09:30:10;100106.59;;;30.16;45.58
47524;BME280;33253;42.144;25.884;2022-07-06T09:32:44;100104.94;;;30.31;41.15
47524;BME280;33253;42.144;25.884;2022-07-06T09:35:22;100088.47;;;30.40;39.40
47524;BME280;33253;42.144;25.884;2022-07-06T09:38:05;100077.31;;;30.51;40.73
47524;BME280;33253;42.144;25.884;2022-07-06T09:40:43;100093.63;;;30.78;37.75
47524;BME280;33253;42.144;25.884;2022-07-06T09:43:13;100091.66;;;30.82;37.08
47524;BME280;33253;42.144;25.884;2022-07-06T09:45:44;100065.53;;;30.89;36.80
47524;BME280;33253;42.144;25.884;2022-07-06T09:48:14;100047.94;;;31.02;40.89
47524;BME280;33253;42.144;25.884;2022-07-06T09:50:46;100080.03;;;31.33;37.05
47524;BME280;33253;42.144;25.884;2022-07-06T09:53:12;100083.94;;;31.43;35.07
47524;BME280;33253;42.144;25.884;2022-07-06T09:55:38;100070.75;;;31.40;35.52
47524;BME280;33253;42.144;25.884;2022-07-06T09:58:07;100071.88;;;31.20;36.41
47524;BME280;33253;42.144;25.884;2022-07-06T10:00:33;100061.69;;;30.94;33.48
47524;BME280;33253;42.144;25.884;2022-07-06T10:03:00;100088.38;;;31.10;36.75
47524;BME280;33253;42.144;25.884;2022-07-06T10:05:25;100082.97;;;31.28;35.60
47524;BME280;33253;42.144;25.884;2022-07-06T10:07:57;100063.44;;;31.43;34.71
47524;BME280;33253;42.144;25.884;2022-07-06T10:10:29;100075.19;;;31.87;34.01
47524;BME280;33253;42.144;25.884;2022-07-06T10:12:56;100009.53;;;31.69;34.21
47524;BME280;33253;42.144;25.884;2022-07-06T10:15:24;100060.59;;;32.09;31.62
47524;BME280;33253;42.144;25.884;2022-07-06T10:17:50;100060.72;;;32.22;28.84
47524;BME280;33253;42.144;25.884;2022-07-06T10:20:17;100079.84;;;32.45;29.41
47524;BME280;33253;42.144;25.884;2022-07-06T10:22:43;100052.34;;;32.42;30.22
47524;BME280;33253;42.144;25.884;2022-07-06T10:25:09;100076.84;;;32.35;29.39
47524;BME280;33253;42.144;25.884;2022-07-06T10:27:35;100071.16;;;32.55;29.09
47524;BME280;33253;42.144;25.884;2022-07-06T10:30:01;100066.69;;;32.70;31.38
47524;BME280;33253;42.144;25.884;2022-07-06T10:32:28;100008.56;;;32.59;27.47
47524;BME280;33253;42.144;25.884;2022-07-06T10:34:53;100010.84;;;32.66;27.61
47524;BME280;33253;42.144;25.884;2022-07-06T10:37:27;99996.25;;;32.71;29.30
47524;BME280;33253;42.144;25.884;2022-07-06T10:39:53;100054.47;;;32.95;27.31
47524;BME280;33253;42.144;25.884;2022-07-06T10:45:06;100051.72;;;32.97;26.72
47524;BME280;33253;42.144;25.884;2022-07-06T10:47:32;100036.22;;;32.87;27.11
47524;BME280;33253;42.144;25.884;2022-07-06T10:50:00;100003.69;;;32.95;27.00
47524;BME280;33253;42.144;25.884;2022-07-06T10:52:51;100054.50;;;33.37;27.09
47524;BME280;33253;42.144;25.884;2022-07-06T10:55:36;99997.53;;;33.08;28.67
47524;BME280;33253;42.144;25.884;2022-07-06T10:58:02;100037.59;;;33.36;27.48
47524;BME280;33253;42.144;25.884;2022-07-06T11:00:53;100052.13;;;33.60;29.28
47524;BME280;33253;42.144;25.884;2022-07-06T11:06:19;100037.47;;;33.52;26.98
47524;BME280;33253;42.144;25.884;2022-07-06T11:08:55;99982.72;;;33.16;26.74
47524;BME280;33253;42.144;25.884;2022-07-06T11:14:07;99978.94;;;33.33;26.47
47524;BME280;33253;42.144;25.884;2022-07-06T11:16:37;99994.16;;;33.46;26.75
47524;BME280;33253;42.144;25.884;2022-07-06T11:19:12;100030.13;;;33.42;26.39
47524;BME280;33253;42.144;25.884;2022-07-06T11:24:16;100009.94;;;33.63;25.49
47524;BME280;33253;42.144;25.884;2022-07-06T11:26:45;100020.66;;;33.63;26.50
47524;BME280;33253;42.144;25.884;2022-07-06T11:29:12;100013.22;;;33.41;25.61
47524;BME280;33253;42.144;25.884;2022-07-06T11:31:42;99920.63;;;32.84;25.01
47524;BME280;33253;42.144;25.884;2022-07-06T11:34:09;100012.38;;;33.26;26.13
47524;BME280;33253;42.144;25.884;2022-07-06T11:36:36;100017.66;;;33.13;24.86
47524;BME280;33253;42.144;25.884;2022-07-06T11:39:03;100008.31;;;33.06;25.29
47524;BME280;33253;42.144;25.884;2022-07-06T11:41:30;100001.88;;;33.23;24.28
47524;BME280;33253;42.144;25.884;2022-07-06T11:43:56;100016.91;;;33.66;24.54
47524;BME280;33253;42.144;25.884;2022-07-06T11:48:48;100016.97;;;33.79;24.85
47524;BME280;33253;42.144;25.884;2022-07-06T11:51:14;99978.59;;;33.78;24.95
47524;BME280;33253;42.144;25.884;2022-07-06T11:53:48;100001.19;;;34.27;25.17
47524;BME280;33253;42.144;25.884;2022-07-06T11:56:15;99985.31;;;34.50;21.67
47524;BME280;33253;42.144;25.884;2022-07-06T11:58:43;99996.56;;;34.55;24.40
47524;BME280;33253;42.144;25.884;2022-07-06T12:01:12;99981.81;;;34.37;23.77
47524;BME280;33253;42.144;25.884;2022-07-06T12:03:38;99990.78;;;34.61;25.22
47524;BME280;33253;42.144;25.884;2022-07-06T12:06:12;99978.91;;;34.40;23.40
47524;BME280;33253;42.144;25.884;2022-07-06T12:08:48;99965.44;;;34.65;22.66
47524;BME280;33253;42.144;25.884;2022-07-06T12:13:49;99989.00;;;34.36;25.09
47524;BME280;33253;42.144;25.884;2022-07-06T12:16:15;99999.88;;;34.33;23.74
47524;BME280;33253;42.144;25.884;2022-07-06T12:18:42;99997.41;;;34.17;25.97
47524;BME280;33253;42.144;25.884;2022-07-06T12:21:11;99994.66;;;34.44;25.16
47524;BME280;33253;42.144;25.884;2022-07-06T12:23:42;99938.59;;;34.41;24.40
47524;BME280;33253;42.144;25.884;2022-07-06T12:26:08;99972.34;;;34.18;24.33
47524;BME280;33253;42.144;25.884;2022-07-06T12:28:35;99961.75;;;34.42;25.69
47524;BME280;33253;42.144;25.884;2022-07-06T12:31:01;99954.56;;;34.43;25.54
47524;BME280;33253;42.144;25.884;2022-07-06T12:33:27;99972.59;;;33.75;30.98
47524;BME280;33253;42.144;25.884;2022-07-06T12:35:53;99961.81;;;32.81;35.52
47524;BME280;33253;42.144;25.884;2022-07-06T12:38:26;99939.50;;;32.95;37.27
47524;BME280;33253;42.144;25.884;2022-07-06T12:40:53;99985.44;;;32.58;38.22
47524;BME280;33253;42.144;25.884;2022-07-06T12:43:38;99978.19;;;32.89;39.95
47524;BME280;33253;42.144;25.884;2022-07-06T12:46:25;99990.41;;;32.65;38.17
47524;BME280;33253;42.144;25.884;2022-07-06T12:48:56;99982.16;;;32.10;39.28
47524;BME280;33253;42.144;25.884;2022-07-06T12:51:21;99957.41;;;32.22;39.38
47524;BME280;33253;42.144;25.884;2022-07-06T12:53:47;99968.66;;;32.13;41.02
47524;BME280;33253;42.144;25.884;2022-07-06T12:56:14;99958.44;;;32.05;41.68